Time;durP1;ratioP1;P1;durP2;ratioP2;P2;SDS_P1;SDS_P2;PMS_P1;PMS_P2;Temp;Humidity;BMP_temperature;BMP_pressure;BME280_temperature;BME280_humidity;BME280_pressure;Samples;Min_cycle;Max_cycle;Signal;HPM_P1;HPM_P2
2021/12/25 00:01:47;;;;;;;0.70;0.60;;;8.20;99.90;;;;;;5051586;28;20171;-70
2021/12/25 00:04:13;;;;;;;0.60;0.50;;;8.20;99.90;;;;;;5051498;28;20441;-70
2021/12/25 00:06:39;;;;;;;2.13;1.43;;;8.10;99.90;;;;;;5050791;28;20417;-69
2021/12/25 00:09:06;;;;;;;1.03;1.03;;;8.20;99.90;;;;;;5051323;28;20175;-70
2021/12/25 00:11:32;;;;;;;1.20;1.10;;;8.20;99.90;;;;;;5051374;28;20921;-71
2021/12/25 00:13:57;;;;;;;1.00;0.90;;;8.10;99.90;;;;;;5051621;28;20421;-71
2021/12/25 00:16:23;;;;;;;0.70;0.60;;;8.10;99.90;;;;;;5051295;28;20416;-70
2021/12/25 00:18:49;;;;;;;0.70;0.60;;;8.00;99.90;;;;;;5048749;28;20193;-69
2021/12/25 00:21:14;;;;;;;0.60;0.50;;;7.90;99.90;;;;;;5051578;28;20190;-70
2021/12/25 00:23:40;;;;;;;1.53;1.10;;;7.90;99.90;;;;;;5049174;28;20195;-70
2021/12/25 00:26:14;;;;;;;0.70;0.60;;;7.90;99.90;;;;;;5049119;28;20552;-70
2021/12/25 00:36:18;;;;;;;0.60;0.50;;;7.80;99.90;;;;;;5050258;28;20759;-70
2021/12/25 00:38:45;;;;;;;0.70;0.50;;;7.80;99.90;;;;;;5052833;28;20780;-71
2021/12/25 00:41:13;;;;;;;1.70;1.60;;;7.70;99.90;;;;;;5053767;28;20461;-70
2021/12/25 00:43:39;;;;;;;1.00;0.90;;;7.70;99.90;;;;;;5054887;28;20437;-70
2021/12/25 00:46:04;;;;;;;0.70;0.60;;;7.80;99.90;;;;;;5049149;28;20424;-70
2021/12/25 00:48:30;;;;;;;0.60;0.50;;;7.80;99.90;;;;;;5055060;28;20167;-70
2021/12/25 00:50:56;;;;;;;1.00;0.73;;;7.70;99.90;;;;;;5053151;28;20229;-70
2021/12/25 00:53:22;;;;;;;0.60;0.50;;;7.70;99.90;;;;;;5053483;28;20320;-70
2021/12/25 00:55:47;;;;;;;0.80;0.80;;;7.70;99.90;;;;;;5053004;28;20193;-70
2021/12/25 00:58:13;;;;;;;0.90;0.90;;;7.70;99.90;;;;;;5053647;28;20493;-70
2021/12/25 01:00:39;;;;;;;1.47;1.37;;;7.60;99.90;;;;;;5053301;28;20198;-70
2021/12/25 01:03:05;;;;;;;0.70;0.67;;;7.60;99.90;;;;;;5054696;28;20413;-70
2021/12/25 01:05:32;;;;;;;1.17;1.03;;;7.60;99.90;;;;;;5053147;28;20919;-70
2021/12/25 01:07:58;;;;;;;1.03;0.93;;;7.60;99.90;;;;;;5052094;28;20179;-69
2021/12/25 01:10:24;;;;;;;1.77;1.67;;;7.70;99.90;;;;;;5052950;28;20435;-70
2021/12/25 01:18:50;;;;;;;0.67;0.50;;;7.70;99.90;;;;;;5052262;28;20786;-71
2021/12/25 01:34:30;;;;;;;0.70;0.60;;;7.70;99.90;;;;;;5040863;28;20444;-70
2021/12/25 01:37:17;;;;;;;2.10;1.17;;;7.70;99.90;;;;;;5052851;28;21010;-71
2021/12/25 01:47:45;;;;;;;0.70;0.50;;;7.60;99.90;;;;;;5051585;28;20433;-69
2021/12/25 01:47:49;;;;;;;1.67;1.17;;;7.50;99.90;;;;;;5050523;28;20486;-70
2021/12/25 01:50:19;;;;;;;1.37;0.90;;;7.40;99.90;;;;;;5034087;28;20413;-70
2021/12/25 01:52:45;;;;;;;0.70;0.60;;;7.40;99.90;;;;;;5039085;28;21222;-69
2021/12/25 01:55:16;;;;;;;1.10;0.70;;;7.40;99.90;;;;;;5052993;28;20539;-70
2021/12/25 01:57:41;;;;;;;1.73;1.63;;;7.40;99.90;;;;;;5053924;28;20229;-70
2021/12/25 02:00:15;;;;;;;0.70;0.70;;;7.50;99.90;;;;;;5052535;28;20465;-69
2021/12/25 02:02:41;;;;;;;1.43;1.33;;;7.60;99.90;;;;;;5046260;28;20195;-70
2021/12/25 02:05:07;;;;;;;1.43;1.33;;;7.60;99.90;;;;;;5053056;28;20466;-70
2021/12/25 02:07:33;;;;;;;3.60;0.80;;;7.50;99.90;;;;;;5053241;28;20424;-70
2021/12/25 02:09:59;;;;;;;0.90;0.90;;;7.50;99.90;;;;;;5049833;28;20428;-70
2021/12/25 02:12:24;;;;;;;0.70;0.60;;;7.50;99.90;;;;;;5052177;28;20206;-70
2021/12/25 02:14:51;;;;;;;0.60;0.50;;;7.60;99.90;;;;;;5052426;28;20579;-69
2021/12/25 02:17:24;;;;;;;1.17;1.10;;;7.50;99.90;;;;;;5051658;28;20224;-70
2021/12/25 02:20:10;;;;;;;0.70;0.60;;;7.50;99.90;;;;;;5053147;28;20540;-70
2021/12/25 02:22:35;;;;;;;0.60;0.50;;;7.50;99.90;;;;;;5050660;28;20532;-71
2021/12/25 02:25:01;;;;;;;0.63;0.50;;;7.50;99.90;;;;;;5052870;28;20828;-70
2021/12/25 02:27:26;;;;;;;0.70;0.50;;;7.50;99.90;;;;;;5052508;28;20558;-70
2021/12/25 02:29:52;;;;;;;0.80;0.80;;;7.50;99.90;;;;;;5050831;28;20320;-70
2021/12/25 02:32:17;;;;;;;1.47;1.27;;;7.40;99.90;;;;;;5052897;28;20249;-70
2021/12/25 02:34:43;;;;;;;0.60;0.60;;;7.40;99.90;;;;;;5051861;28;20179;-69
2021/12/25 02:37:09;;;;;;;0.70;0.50;;;7.30;99.90;;;;;;5046778;28;20191;-70
2021/12/25 02:39:35;;;;;;;0.70;0.57;;;7.30;99.90;;;;;;5047600;28;20256;-69
2021/12/25 02:42:00;;;;;;;0.87;0.70;;;7.30;99.90;;;;;;5046170;28;20174;-70
2021/12/25 02:44:26;;;;;;;0.73;0.73;;;7.20;99.90;;;;;;5046186;28;20209;-69
2021/12/25 02:46:54;;;;;;;0.70;0.70;;;7.20;99.90;;;;;;5047380;28;20249;-70
2021/12/25 02:49:21;;;;;;;0.60;0.50;;;7.20;99.90;;;;;;5046902;28;20424;-70
2021/12/25 02:51:48;;;;;;;0.90;0.80;;;7.10;99.90;;;;;;5045050;28;20436;-70
2021/12/25 02:54:14;;;;;;;0.60;0.50;;;7.20;99.90;;;;;;5046534;28;20448;-70
2021/12/25 02:56:39;;;;;;;1.37;0.93;;;7.10;99.90;;;;;;5045082;28;22377;-70
2021/12/25 02:59:05;;;;;;;0.90;0.90;;;7.10;99.90;;;;;;5052644;28;20409;-70
2021/12/25 03:01:31;;;;;;;0.67;0.50;;;7.10;99.90;;;;;;5051148;28;20183;-70
2021/12/25 03:03:56;;;;;;;0.70;0.63;;;7.10;99.90;;;;;;5051200;28;20195;-70
2021/12/25 03:06:23;;;;;;;0.70;0.60;;;7.10;99.90;;;;;;5051543;28;20202;-70
2021/12/25 03:08:49;;;;;;;1.00;0.90;;;7.10;99.90;;;;;;5050139;28;20771;-70
2021/12/25 03:11:15;;;;;;;0.60;0.50;;;7.10;99.90;;;;;;5049560;28;20437;-70
2021/12/25 03:13:45;;;;;;;0.60;0.50;;;7.10;99.90;;;;;;5051790;28;20194;-70
2021/12/25 03:16:12;;;;;;;0.70;0.60;;;7.10;99.90;;;;;;5051927;28;20182;-70
2021/12/25 03:18:46;;;;;;;0.90;0.90;;;7.00;99.90;;;;;;5049729;28;20433;-70
2021/12/25 03:21:13;;;;;;;0.70;0.60;;;6.90;99.90;;;;;;5050703;28;20460;-70
2021/12/25 03:23:41;;;;;;;0.93;0.70;;;6.90;99.90;;;;;;5048747;28;20969;-70
2021/12/25 03:26:07;;;;;;;0.67;0.50;;;6.90;99.90;;;;;;5051932;28;20429;-69
2021/12/25 03:28:37;;;;;;;0.70;0.60;;;7.00;99.90;;;;;;5047063;28;20433;-70
2021/12/25 03:31:07;;;;;;;0.80;0.70;;;7.00;99.90;;;;;;5049924;28;20934;-70
2021/12/25 03:33:33;;;;;;;0.67;0.50;;;7.00;99.90;;;;;;5041738;28;20473;-71
2021/12/25 03:36:01;;;;;;;0.80;0.70;;;7.00;99.90;;;;;;5051846;28;20937;-70
2021/12/25 03:38:28;;;;;;;1.10;0.90;;;7.00;99.90;;;;;;5041441;28;20417;-70
2021/12/25 03:40:55;;;;;;;2.30;2.20;;;7.00;99.90;;;;;;5032015;28;20488;-70
2021/12/25 03:43:21;;;;;;;0.83;0.83;;;7.00;99.90;;;;;;5050246;28;20436;-70
2021/12/25 03:45:47;;;;;;;0.77;0.77;;;6.90;99.90;;;;;;5051514;28;20422;-70
2021/12/25 03:48:40;;;;;;;2.03;1.53;;;7.00;99.90;;;;;;5051665;28;20253;-70
2021/12/25 03:59:03;;;;;;;0.60;0.50;;;6.80;99.90;;;;;;5051630;28;20471;-69
2021/12/25 04:01:43;;;;;;;0.70;0.70;;;6.80;99.90;;;;;;5051441;28;20500;-69
2021/12/25 04:06:50;;;;;;;0.70;0.50;;;6.80;99.90;;;;;;5050772;28;20457;-70
2021/12/25 04:09:27;;;;;;;0.70;0.50;;;6.80;99.90;;;;;;5055883;28;20954;-70
2021/12/25 04:11:55;;;;;;;0.70;0.60;;;6.80;99.90;;;;;;5044398;28;20421;-70
2021/12/25 04:14:21;;;;;;;1.53;1.30;;;6.80;99.90;;;;;;5055741;28;20417;-70
2021/12/25 04:16:47;;;;;;;0.70;0.50;;;6.70;99.90;;;;;;5055391;28;20414;-68
2021/12/25 04:19:12;;;;;;;0.70;0.50;;;6.70;99.90;;;;;;5050945;28;20414;-70
2021/12/25 04:21:47;;;;;;;0.90;0.90;;;6.70;99.90;;;;;;5054841;28;20270;-70
2021/12/25 04:24:12;;;;;;;1.23;1.13;;;6.60;99.90;;;;;;5054966;28;20225;-69
2021/12/25 04:26:41;;;;;;;0.70;0.60;;;6.60;99.90;;;;;;5055305;28;20922;-70
2021/12/25 04:29:30;;;;;;;5.37;1.43;;;6.60;99.90;;;;;;5054444;28;20644;-70
2021/12/25 04:42:52;;;;;;;0.90;0.77;;;6.50;99.90;;;;;;5055207;28;20475;-70
2021/12/25 05:04:33;;;;;;;4.30;0.90;;;6.30;99.90;;;;;;5054860;28;20431;-70
2021/12/25 05:06:59;;;;;;;0.60;0.50;;;6.30;99.90;;;;;;5054549;28;20398;-69
2021/12/25 05:09:24;;;;;;;0.60;0.50;;;6.30;99.90;;;;;;5054824;28;20742;-69
2021/12/25 05:11:50;;;;;;;2.63;1.00;;;6.40;99.90;;;;;;5051462;28;20246;-70
2021/12/25 05:14:15;;;;;;;0.70;0.50;;;6.30;99.90;;;;;;5045594;28;20199;-71
2021/12/25 05:16:41;;;;;;;0.60;0.50;;;6.30;99.90;;;;;;5054301;28;20224;-70
2021/12/25 05:19:07;;;;;;;1.27;0.80;;;6.30;99.90;;;;;;5054024;28;20163;-70
2021/12/25 05:21:33;;;;;;;0.70;0.50;;;6.20;99.90;;;;;;5054387;28;20198;-70
2021/12/25 05:23:59;;;;;;;0.63;0.50;;;6.20;99.90;;;;;;5054500;28;20417;-69
2021/12/25 05:26:25;;;;;;;0.60;0.50;;;6.10;99.90;;;;;;5052247;28;20228;-69
2021/12/25 05:28:58;;;;;;;0.70;0.50;;;6.20;99.90;;;;;;5054343;28;20429;-69
2021/12/25 05:31:26;;;;;;;0.90;0.80;;;6.10;99.90;;;;;;5054386;28;20159;-70
2021/12/25 05:33:52;;;;;;;0.73;0.73;;;6.20;99.90;;;;;;5054209;28;20418;-70
2021/12/25 05:36:18;;;;;;;0.60;0.50;;;6.10;99.90;;;;;;5053977;28;20402;-69
2021/12/25 05:38:43;;;;;;;0.70;0.70;;;6.10;99.90;;;;;;5052902;28;20402;-69
2021/12/25 05:41:11;;;;;;;0.70;0.70;;;6.10;99.90;;;;;;5065049;28;20244;-70
2021/12/25 05:43:37;;;;;;;0.70;0.50;;;6.00;99.90;;;;;;5074091;28;20800;-70
2021/12/25 05:46:03;;;;;;;1.07;1.07;;;6.00;99.90;;;;;;5065861;28;20426;-70
2021/12/25 05:48:29;;;;;;;0.70;0.60;;;6.00;99.90;;;;;;5053999;28;20413;-70
2021/12/25 05:50:55;;;;;;;0.70;0.60;;;5.90;99.90;;;;;;5052516;28;20175;-70
2021/12/25 05:53:20;;;;;;;0.73;0.70;;;5.90;99.90;;;;;;5051831;28;20984;-70
2021/12/25 05:55:46;;;;;;;0.67;0.50;;;5.80;99.90;;;;;;5053598;28;20194;-70
2021/12/25 05:58:11;;;;;;;0.70;0.53;;;5.80;99.90;;;;;;5054009;28;20258;-69
2021/12/25 06:00:38;;;;;;;1.93;1.83;;;5.80;99.90;;;;;;5052748;28;20612;-70
2021/12/25 06:03:04;;;;;;;0.70;0.57;;;5.70;99.90;;;;;;5053704;28;20183;-69
2021/12/25 06:05:30;;;;;;;0.70;0.60;;;5.60;99.90;;;;;;5053421;28;20405;-69
2021/12/25 06:07:56;;;;;;;1.20;1.10;;;5.60;99.90;;;;;;5053290;28;20444;-70
2021/12/25 06:10:23;;;;;;;0.90;0.73;;;5.60;99.90;;;;;;5053468;28;20483;-69
2021/12/25 06:12:50;;;;;;;2.60;1.20;;;5.60;99.90;;;;;;5053624;28;20504;-70
2021/12/25 06:15:19;;;;;;;0.70;0.50;;;5.60;99.90;;;;;;5053516;28;20923;-70
2021/12/25 06:17:46;;;;;;;1.13;1.13;;;5.50;99.90;;;;;;5053397;28;20524;-70
2021/12/25 06:20:12;;;;;;;0.70;0.50;;;5.60;99.90;;;;;;5040724;28;20489;-70
2021/12/25 06:22:37;;;;;;;1.53;1.43;;;5.50;99.90;;;;;;5053272;28;20510;-71
2021/12/25 06:25:05;;;;;;;1.00;0.90;;;5.40;99.90;;;;;;5053035;28;20167;-70
2021/12/25 06:27:30;;;;;;;2.80;1.43;;;5.40;99.90;;;;;;5053113;28;20699;-70
2021/12/25 06:29:56;;;;;;;0.80;0.80;;;5.40;99.90;;;;;;5051002;28;20489;-70
2021/12/25 06:32:21;;;;;;;0.70;0.70;;;5.40;99.90;;;;;;5052530;28;20167;-70
2021/12/25 06:34:47;;;;;;;1.53;0.87;;;5.40;99.90;;;;;;5052591;28;20205;-70
2021/12/25 06:37:13;;;;;;;0.70;0.60;;;5.30;99.90;;;;;;5052849;28;20190;-70
2021/12/25 06:39:40;;;;;;;0.70;0.50;;;5.30;99.90;;;;;;5052619;28;20325;-69
2021/12/25 06:42:08;;;;;;;1.37;1.27;;;5.30;99.90;;;;;;5052990;28;20451;-70
2021/12/25 06:44:34;;;;;;;0.67;0.50;;;5.30;99.90;;;;;;5052842;28;20428;-69
2021/12/25 06:47:00;;;;;;;0.73;0.70;;;5.30;99.90;;;;;;5051436;28;20478;-70
2021/12/25 06:49:26;;;;;;;0.70;0.60;;;5.20;99.90;;;;;;5051064;28;20449;-70
2021/12/25 06:51:53;;;;;;;0.70;0.50;;;5.30;99.90;;;;;;5052636;28;20416;-70
2021/12/25 06:54:19;;;;;;;0.67;0.50;;;5.30;99.90;;;;;;5052545;28;20437;-70
2021/12/25 06:56:46;;;;;;;6.40;1.70;;;5.30;99.90;;;;;;5052478;28;20397;-70
2021/12/25 06:59:11;;;;;;;0.87;0.87;;;5.20;99.90;;;;;;5052342;28;20413;-69
2021/12/25 07:01:38;;;;;;;0.83;0.80;;;5.20;99.90;;;;;;5052170;28;20471;-70
2021/12/25 07:04:04;;;;;;;0.70;0.57;;;5.20;99.90;;;;;;5052533;28;20257;-70
2021/12/25 07:06:30;;;;;;;0.70;0.60;;;5.20;99.90;;;;;;5052226;28;20899;-70
2021/12/25 07:08:55;;;;;;;1.33;1.23;;;5.20;99.90;;;;;;5052472;28;20409;-70
2021/12/25 07:11:21;;;;;;;0.63;0.60;;;5.10;99.90;;;;;;5052504;28;20211;-70
2021/12/25 07:13:48;;;;;;;0.90;0.90;;;5.10;99.90;;;;;;5051257;28;20271;-70
2021/12/25 07:16:14;;;;;;;0.70;0.60;;;5.10;99.90;;;;;;5050594;28;20198;-70
2021/12/25 07:18:40;;;;;;;0.70;0.50;;;5.20;99.90;;;;;;5044882;28;20525;-70
2021/12/25 07:21:06;;;;;;;0.60;0.50;;;5.10;99.90;;;;;;5040469;28;20897;-70
2021/12/25 07:23:32;;;;;;;0.70;0.60;;;5.10;99.90;;;;;;5052002;28;20424;-70
2021/12/25 07:25:58;;;;;;;0.70;0.60;;;5.00;99.90;;;;;;5050686;28;20421;-70
2021/12/25 07:28:24;;;;;;;0.63;0.60;;;5.00;99.90;;;;;;5051186;28;20918;-70
2021/12/25 07:30:50;;;;;;;5.40;1.73;;;5.10;99.90;;;;;;5052132;28;20432;-70
2021/12/25 07:33:17;;;;;;;0.70;0.60;;;5.00;99.90;;;;;;5052201;28;20768;-70
2021/12/25 07:35:42;;;;;;;1.00;0.90;;;5.00;99.90;;;;;;5051767;28;20545;-70
2021/12/25 07:38:08;;;;;;;2.07;1.97;;;5.00;99.90;;;;;;5051967;28;20424;-70
2021/12/25 07:40:34;;;;;;;0.70;0.60;;;5.00;99.90;;;;;;5050251;28;20190;-70
2021/12/25 07:42:59;;;;;;;1.43;1.17;;;5.00;99.90;;;;;;5051735;28;20354;-70
2021/12/25 07:45:25;;;;;;;0.70;0.67;;;4.90;99.90;;;;;;5039744;28;20167;-70
2021/12/25 07:47:58;;;;;;;0.70;0.50;;;4.90;99.90;;;;;;5032078;28;20210;-70
2021/12/25 07:50:25;;;;;;;2.60;1.27;;;5.00;99.90;;;;;;5032007;28;20188;-70
2021/12/25 07:52:50;;;;;;;1.00;1.00;;;4.90;99.90;;;;;;5030544;28;20430;-70
2021/12/25 07:55:16;;;;;;;0.67;0.60;;;4.80;99.90;;;;;;5043080;28;20436;-70
2021/12/25 07:57:41;;;;;;;0.70;0.70;;;4.80;99.90;;;;;;5031831;28;20176;-70
2021/12/25 08:00:10;;;;;;;0.70;0.50;;;4.80;99.90;;;;;;5030565;28;20253;-70
2021/12/25 08:02:35;;;;;;;1.03;1.03;;;4.80;99.90;;;;;;5031758;28;20270;-70
2021/12/25 08:05:01;;;;;;;0.70;0.50;;;4.80;99.90;;;;;;5031461;28;20491;-70
2021/12/25 08:07:27;;;;;;;0.63;0.50;;;4.80;99.90;;;;;;5038710;28;20305;-70
2021/12/25 08:09:57;;;;;;;0.70;0.70;;;4.80;99.90;;;;;;5048110;28;20193;-71
2021/12/25 08:12:22;;;;;;;0.70;0.57;;;4.80;99.90;;;;;;5067281;28;20861;-70
2021/12/25 08:14:48;;;;;;;2.20;1.37;;;4.80;99.90;;;;;;5057538;28;20500;-70
2021/12/25 08:17:13;;;;;;;0.60;0.50;;;4.80;99.90;;;;;;5051458;28;20170;-70
2021/12/25 08:19:40;;;;;;;0.70;0.60;;;4.90;99.90;;;;;;5051315;28;20191;-71
2021/12/25 08:22:05;;;;;;;1.47;0.90;;;4.80;99.90;;;;;;5051533;28;20164;-71
2021/12/25 08:24:31;;;;;;;0.70;0.60;;;4.90;99.90;;;;;;5040475;28;20935;-71
2021/12/25 08:27:00;;;;;;;0.87;0.87;;;4.90;99.90;;;;;;5045880;28;20540;-70
2021/12/25 08:29:26;;;;;;;0.63;0.50;;;4.80;99.90;;;;;;5051480;28;20160;-70
2021/12/25 08:31:51;;;;;;;0.67;0.50;;;4.80;99.90;;;;;;5051485;28;20415;-70
2021/12/25 08:34:17;;;;;;;0.70;0.50;;;4.80;99.90;;;;;;5051376;28;20191;-71
2021/12/25 08:36:43;;;;;;;1.73;1.23;;;4.80;99.90;;;;;;5051001;28;20159;-70
2021/12/25 08:39:08;;;;;;;0.70;0.60;;;4.80;99.90;;;;;;5050653;28;20251;-70
2021/12/25 08:41:34;;;;;;;0.97;0.73;;;4.80;99.90;;;;;;5051302;28;20195;-70
2021/12/25 08:44:07;;;;;;;0.70;0.50;;;4.80;99.90;;;;;;5050638;28;20265;-71
2021/12/25 08:46:55;;;;;;;0.60;0.50;;;4.80;99.90;;;;;;5051249;28;20232;-71
2021/12/25 08:49:24;;;;;;;0.97;0.97;;;4.80;99.90;;;;;;5051433;28;20398;-71
2021/12/25 08:51:51;;;;;;;0.67;0.50;;;4.90;99.90;;;;;;5051300;28;20983;-71
2021/12/25 08:54:17;;;;;;;0.60;0.50;;;4.90;99.90;;;;;;5044483;28;20852;-71
2021/12/25 08:56:43;;;;;;;0.97;0.87;;;4.90;99.90;;;;;;5054729;28;20409;-71
2021/12/25 08:59:09;;;;;;;0.87;0.87;;;4.90;99.90;;;;;;5054900;28;20220;-71
2021/12/25 09:01:35;;;;;;;1.73;1.63;;;4.90;99.90;;;;;;5054927;28;20200;-71
2021/12/25 09:04:01;;;;;;;2.40;1.47;;;4.90;99.90;;;;;;5047556;28;20441;-71
2021/12/25 09:06:27;;;;;;;1.13;1.10;;;4.90;99.90;;;;;;5054583;28;20167;-70
2021/12/25 09:08:53;;;;;;;0.60;0.50;;;4.90;99.90;;;;;;5054598;28;20499;-71
2021/12/25 09:11:20;;;;;;;0.70;0.50;;;5.00;99.90;;;;;;5054432;28;20760;-70
2021/12/25 09:13:46;;;;;;;0.70;0.50;;;5.00;99.90;;;;;;5054447;28;20241;-70
2021/12/25 09:16:12;;;;;;;0.70;0.50;;;4.90;99.90;;;;;;5054335;28;20417;-71
2021/12/25 09:18:37;;;;;;;0.67;0.50;;;4.90;99.90;;;;;;5048836;28;20261;-71
2021/12/25 09:21:03;;;;;;;0.63;0.50;;;4.90;99.90;;;;;;5054422;28;20296;-71
2021/12/25 09:23:28;;;;;;;0.60;0.50;;;4.90;99.90;;;;;;5053769;28;20209;-70
2021/12/25 09:25:54;;;;;;;0.63;0.57;;;4.90;99.90;;;;;;5054180;28;20171;-71
2021/12/25 09:28:19;;;;;;;0.70;0.50;;;4.80;99.90;;;;;;5053144;28;20197;-71
2021/12/25 09:30:45;;;;;;;0.70;0.50;;;4.90;99.90;;;;;;5051203;28;20179;-71
2021/12/25 09:33:11;;;;;;;0.60;0.50;;;5.10;99.90;;;;;;5054391;28;20225;-71
2021/12/25 09:35:37;;;;;;;0.60;0.60;;;5.50;99.90;;;;;;5052755;28;20262;-71
2021/12/25 09:38:03;;;;;;;0.70;0.60;;;5.80;99.90;;;;;;5054044;28;20171;-71
2021/12/25 09:40:29;;;;;;;0.70;0.57;;;6.10;99.90;;;;;;5054030;28;20464;-71
2021/12/25 09:42:55;;;;;;;0.60;0.50;;;6.30;99.90;;;;;;5053424;28;20518;-71
2021/12/25 09:45:22;;;;;;;2.03;0.80;;;6.30;99.90;;;;;;5053291;28;20163;-71
2021/12/25 09:47:48;;;;;;;0.70;0.60;;;6.10;99.90;;;;;;5053895;28;20433;-71
2021/12/25 09:50:15;;;;;;;0.60;0.50;;;5.90;99.90;;;;;;5050494;28;20421;-71
2021/12/25 09:52:42;;;;;;;0.70;0.70;;;5.80;99.90;;;;;;5036975;28;20449;-71
2021/12/25 09:55:09;;;;;;;0.70;0.60;;;5.70;99.90;;;;;;5053460;28;20429;-71
2021/12/25 09:57:35;;;;;;;0.60;0.50;;;5.60;99.90;;;;;;5045891;28;20918;-71
2021/12/25 10:00:10;;;;;;;0.67;0.50;;;5.60;99.90;;;;;;5053953;28;20972;-71
2021/12/25 10:02:48;;;;;;;0.70;0.50;;;5.60;99.90;;;;;;5052918;28;20467;-71
2021/12/25 10:05:25;;;;;;;0.67;0.50;;;5.50;99.90;;;;;;5053594;28;20429;-71
2021/12/25 10:08:07;;;;;;;0.70;0.67;;;5.40;99.90;;;;;;5037269;28;20523;-71
2021/12/25 10:10:41;;;;;;;0.70;0.50;;;5.50;99.90;;;;;;5034724;28;20402;-71
2021/12/25 10:13:20;;;;;;;1.17;1.07;;;5.30;99.90;;;;;;5053650;28;20424;-71
2021/12/25 10:15:45;;;;;;;0.67;0.50;;;5.40;99.90;;;;;;5053315;28;20906;-70
2021/12/25 10:18:11;;;;;;;0.70;0.50;;;5.40;99.90;;;;;;5053258;28;20424;-71
2021/12/25 10:20:37;;;;;;;0.60;0.50;;;5.30;99.90;;;;;;5053416;28;20198;-71
2021/12/25 10:23:15;;;;;;;0.90;0.90;;;5.30;99.90;;;;;;5053054;28;20202;-71
2021/12/25 10:25:53;;;;;;;0.60;0.50;;;5.30;99.90;;;;;;5052595;28;20171;-71
2021/12/25 10:28:34;;;;;;;0.60;0.50;;;5.30;99.90;;;;;;5046751;28;20500;-71
2021/12/25 10:31:08;;;;;;;1.37;1.23;;;5.40;99.90;;;;;;5051646;28;20448;-71
2021/12/25 10:33:51;;;;;;;0.60;0.50;;;5.30;99.90;;;;;;5033220;28;20474;-71
2021/12/25 10:36:28;;;;;;;0.70;0.50;;;5.00;99.90;;;;;;5032963;28;20410;-71
2021/12/25 10:39:07;;;;;;;0.60;0.50;;;5.20;99.90;;;;;;5046078;28;20512;-71
2021/12/25 10:41:35;;;;;;;0.70;0.50;;;5.10;99.90;;;;;;5051406;28;20492;-71
2021/12/25 10:44:20;;;;;;;0.70;0.60;;;5.00;99.90;;;;;;5052878;28;20433;-71
2021/12/25 10:47:01;;;;;;;0.67;0.50;;;5.00;99.90;;;;;;5051150;28;20417;-71
2021/12/25 10:49:33;;;;;;;0.97;0.97;;;5.10;99.90;;;;;;5051065;28;20420;-70
2021/12/25 10:52:16;;;;;;;0.60;0.50;;;5.20;99.90;;;;;;5052549;28;20497;-71
2021/12/25 10:54:54;;;;;;;0.60;0.50;;;4.90;99.90;;;;;;5052624;28;20417;-70
2021/12/25 10:57:48;;;;;;;0.70;0.50;;;5.10;99.90;;;;;;5052772;28;20401;-70
2021/12/25 11:00:20;;;;;;;0.60;0.50;;;5.00;99.90;;;;;;5052637;28;20957;-70
2021/12/25 11:03:00;;;;;;;0.60;0.50;;;5.10;99.90;;;;;;5052556;28;20449;-70
2021/12/25 11:05:31;;;;;;;0.60;0.50;;;5.10;99.90;;;;;;5043256;28;20924;-71
2021/12/25 11:08:05;;;;;;;0.63;0.57;;;5.20;99.90;;;;;;5052484;28;20788;-70
2021/12/25 11:10:32;;;;;;;0.70;0.50;;;5.20;99.90;;;;;;5052538;28;20405;-71
2021/12/25 11:12:58;;;;;;;0.67;0.50;;;5.20;99.90;;;;;;5050610;28;20440;-70
2021/12/25 11:15:33;;;;;;;0.70;0.70;;;5.30;99.90;;;;;;5052019;28;20407;-70
2021/12/25 11:18:07;;;;;;;0.70;0.70;;;5.30;99.90;;;;;;5052310;28;20984;-70
2021/12/25 11:20:38;;;;;;;0.70;0.50;;;5.20;99.90;;;;;;5043758;28;20462;-71
2021/12/25 11:23:06;;;;;;;0.80;0.80;;;5.10;99.90;;;;;;5032256;28;20422;-71
2021/12/25 11:25:34;;;;;;;0.60;0.50;;;5.10;99.90;;;;;;5045108;28;20429;-70
2021/12/25 11:28:02;;;;;;;0.80;0.73;;;5.20;99.90;;;;;;5051892;28;20432;-70
2021/12/25 11:30:31;;;;;;;0.70;0.60;;;5.10;99.90;;;;;;5052321;28;20767;-70
2021/12/25 11:32:57;;;;;;;0.60;0.50;;;5.10;99.90;;;;;;5051762;28;20456;-70
2021/12/25 11:35:23;;;;;;;0.70;0.50;;;5.20;99.90;;;;;;5051492;28;20428;-70
2021/12/25 11:37:50;;;;;;;0.70;0.60;;;5.10;99.90;;;;;;5045571;28;20832;-70
2021/12/25 11:40:17;;;;;;;0.70;0.50;;;5.20;99.90;;;;;;5056465;28;20221;-71
2021/12/25 11:42:49;;;;;;;0.67;0.50;;;5.20;99.90;;;;;;5032039;28;20442;-70
2021/12/25 11:45:22;;;;;;;0.60;0.50;;;5.30;99.90;;;;;;5032824;28;20414;-71
2021/12/25 11:47:51;;;;;;;0.67;0.50;;;5.20;99.90;;;;;;5035713;28;20473;-71
2021/12/25 11:50:42;;;;;;;0.60;0.50;;;5.20;99.90;;;;;;5032027;28;20415;-71
2021/12/25 11:53:22;;;;;;;0.70;0.50;;;5.20;99.90;;;;;;5041366;28;20842;-70
2021/12/25 11:59:17;;;;;;;0.60;0.50;;;5.30;99.90;;;;;;5032299;28;20414;-71
2021/12/25 12:01:49;;;;;;;0.70;0.50;;;5.40;99.90;;;;;;5038141;28;20491;-71
2021/12/25 12:04:25;;;;;;;0.60;0.50;;;5.30;99.90;;;;;;5051557;28;20502;-71
2021/12/25 12:06:56;;;;;;;0.60;0.50;;;5.30;99.90;;;;;;5051367;28;20417;-71
2021/12/25 12:09:27;;;;;;;0.67;0.50;;;5.30;99.90;;;;;;5048785;28;20926;-71
2021/12/25 12:12:04;;;;;;;0.60;0.50;;;5.30;99.90;;;;;;5051780;28;20409;-71
2021/12/25 12:14:32;;;;;;;0.60;0.50;;;5.30;99.90;;;;;;5051303;28;20441;-71
2021/12/25 12:17:26;;;;;;;0.63;0.60;;;5.40;99.90;;;;;;5051562;28;20471;-71
2021/12/25 12:19:54;;;;;;;0.70;0.50;;;5.50;99.90;;;;;;5040096;28;20464;-71
2021/12/25 12:22:29;;;;;;;0.67;0.50;;;5.40;99.90;;;;;;5050825;28;20435;-71
2021/12/25 12:25:42;;;;;;;0.67;0.50;;;5.40;99.90;;;;;;5050408;28;20416;-71
2021/12/25 12:28:08;;;;;;;1.00;1.00;;;5.30;99.90;;;;;;5052056;28;20761;-71
2021/12/25 12:30:50;;;;;;;1.13;1.03;;;5.30;99.90;;;;;;5055447;28;20420;-71
2021/12/25 12:33:15;;;;;;;0.70;0.50;;;5.20;99.90;;;;;;5055476;28;20421;-70
2021/12/25 12:35:43;;;;;;;1.00;0.90;;;5.20;99.90;;;;;;5055464;28;20781;-70
2021/12/25 12:38:38;;;;;;;0.70;0.50;;;5.00;99.90;;;;;;5057571;28;20171;-70
2021/12/25 12:41:14;;;;;;;0.70;0.63;;;4.90;99.90;;;;;;5044344;28;20524;-71
2021/12/25 12:43:58;;;;;;;0.60;0.50;;;4.80;99.90;;;;;;5053911;28;20443;-70
2021/12/25 12:46:45;;;;;;;0.70;0.50;;;4.70;99.90;;;;;;5053630;28;20438;-71
2021/12/25 12:49:11;;;;;;;0.67;0.50;;;4.80;99.90;;;;;;5053707;28;20995;-70
2021/12/25 12:51:37;;;;;;;1.10;1.00;;;5.00;99.90;;;;;;5048709;28;20429;-70
2021/12/25 12:54:03;;;;;;;0.70;0.60;;;5.10;99.90;;;;;;5054784;28;20829;-70
2021/12/25 12:56:29;;;;;;;0.70;0.50;;;5.20;99.90;;;;;;5054446;28;20482;-70
2021/12/25 12:58:57;;;;;;;0.60;0.50;;;5.20;99.90;;;;;;5054750;28;20432;-70
2021/12/25 13:01:25;;;;;;;1.20;1.10;;;5.20;99.90;;;;;;5054713;28;20464;-71
2021/12/25 13:03:59;;;;;;;0.67;0.50;;;5.00;99.90;;;;;;5054909;28;20424;-71
2021/12/25 13:06:29;;;;;;;0.70;0.50;;;5.20;99.90;;;;;;5054459;28;20425;-71
2021/12/25 13:09:00;;;;;;;0.70;0.50;;;5.10;99.90;;;;;;5054922;28;20615;-71
2021/12/25 13:11:32;;;;;;;0.70;0.53;;;5.00;99.90;;;;;;5053474;28;20424;-71
2021/12/25 13:14:00;;;;;;;0.70;0.50;;;4.90;99.90;;;;;;5048503;28;20441;-71
2021/12/25 13:16:36;;;;;;;0.70;0.50;;;4.90;99.90;;;;;;5046819;28;20461;-71
2021/12/25 13:19:05;;;;;;;0.70;0.50;;;4.90;99.90;;;;;;5046570;28;20435;-71
2021/12/25 13:21:31;;;;;;;0.70;0.60;;;4.70;99.90;;;;;;5053195;28;21018;-71
2021/12/25 13:24:04;;;;;;;0.70;0.50;;;4.80;99.90;;;;;;5054625;28;20417;-70
2021/12/25 13:26:34;;;;;;;0.70;0.50;;;4.80;99.90;;;;;;5054275;28;20397;-70
2021/12/25 13:29:03;;;;;;;0.67;0.50;;;4.80;99.90;;;;;;5053263;28;20430;-71
2021/12/25 13:31:31;;;;;;;0.67;0.50;;;4.80;99.90;;;;;;5053733;28;20429;-70
2021/12/25 13:34:00;;;;;;;0.70;0.50;;;4.90;99.90;;;;;;5053816;28;20445;-70
2021/12/25 13:36:28;;;;;;;0.70;0.50;;;4.70;99.90;;;;;;5052534;28;20444;-70
2021/12/25 13:39:00;;;;;;;0.70;0.50;;;4.60;99.90;;;;;;5053799;28;21040;-70
2021/12/25 13:41:33;;;;;;;0.70;0.50;;;4.60;99.90;;;;;;5052483;28;20453;-70
2021/12/25 13:44:27;;;;;;;0.60;0.50;;;4.60;99.90;;;;;;5054219;28;20422;-71
2021/12/25 13:47:14;;;;;;;0.70;0.50;;;4.60;99.90;;;;;;5051833;28;20475;-71
2021/12/25 13:49:52;;;;;;;0.70;0.57;;;4.50;99.90;;;;;;5053896;28;20405;-70
2021/12/25 13:52:25;;;;;;;0.70;0.50;;;4.70;99.90;;;;;;5053948;28;20401;-70
2021/12/25 13:55:12;;;;;;;0.67;0.50;;;4.40;99.90;;;;;;5042042;28;20495;-70
2021/12/25 13:58:07;;;;;;;0.67;0.50;;;4.40;99.90;;;;;;5033989;28;20468;-70
2021/12/25 14:00:52;;;;;;;0.67;0.50;;;4.40;99.90;;;;;;5033085;28;20505;-70
2021/12/25 14:03:21;;;;;;;0.70;0.50;;;4.40;99.90;;;;;;5033347;28;20442;-70
2021/12/25 14:05:49;;;;;;;0.67;0.50;;;4.40;99.90;;;;;;5033447;28;20838;-69
2021/12/25 14:08:25;;;;;;;0.60;0.50;;;4.30;99.90;;;;;;5033645;28;20896;-69
2021/12/25 14:10:58;;;;;;;0.67;0.50;;;4.30;99.90;;;;;;5049672;28;20435;-70
2021/12/25 14:13:25;;;;;;;0.70;0.50;;;4.30;99.90;;;;;;5053326;28;20486;-70
2021/12/25 14:15:54;;;;;;;0.67;0.50;;;4.30;99.90;;;;;;5053364;28;20736;-70
2021/12/25 14:18:21;;;;;;;0.70;0.50;;;4.30;99.90;;;;;;5053134;28;20498;-70
2021/12/25 14:20:46;;;;;;;0.70;0.50;;;4.30;99.90;;;;;;5053460;28;20825;-70
2021/12/25 14:23:17;;;;;;;0.67;0.50;;;4.30;99.90;;;;;;5048456;28;20446;-69
2021/12/25 14:25:46;;;;;;;0.60;0.50;;;4.30;99.90;;;;;;5033147;28;20183;-70